sensor_id;sensor_type;location;lat;lon;timestamp;P1;durP1;ratioP1;P2;durP2;ratioP2
43311;SDS011;30041;48.300;16.352;2023-12-20T00:02:21;4.68;;;3.90;;
43311;SDS011;30041;48.300;16.352;2023-12-20T00:04:47;4.03;;;3.20;;
43311;SDS011;30041;48.300;16.352;2023-12-20T00:07:15;4.65;;;3.33;;
43311;SDS011;30041;48.300;16.352;2023-12-20T00:09:41;4.97;;;3.53;;
43311;SDS011;30041;48.300;16.352;2023-12-20T00:12:07;3.97;;;3.00;;
43311;SDS011;30041;48.300;16.352;2023-12-20T00:14:32;4.32;;;3.30;;
43311;SDS011;30041;48.300;16.352;2023-12-20T00:17:01;4.47;;;2.90;;
43311;SDS011;30041;48.300;16.352;2023-12-20T00:19:26;4.43;;;3.40;;
43311;SDS011;30041;48.300;16.352;2023-12-20T00:21:52;4.10;;;3.10;;
43311;SDS011;30041;48.300;16.352;2023-12-20T00:24:17;3.97;;;3.30;;
43311;SDS011;30041;48.300;16.352;2023-12-20T00:26:43;3.85;;;2.92;;
43311;SDS011;30041;48.300;16.352;2023-12-20T00:29:08;5.55;;;3.08;;
43311;SDS011;30041;48.300;16.352;2023-12-20T00:31:34;3.70;;;3.03;;
43311;SDS011;30041;48.300;16.352;2023-12-20T00:33:59;3.88;;;3.10;;
43311;SDS011;30041;48.300;16.352;2023-12-20T00:36:25;3.83;;;2.90;;
43311;SDS011;30041;48.300;16.352;2023-12-20T00:38:50;3.60;;;2.92;;
43311;SDS011;30041;48.300;16.352;2023-12-20T00:41:16;3.88;;;2.85;;
43311;SDS011;30041;48.300;16.352;2023-12-20T00:43:41;3.58;;;2.80;;
43311;SDS011;30041;48.300;16.352;2023-12-20T00:46:07;3.80;;;2.75;;
43311;SDS011;30041;48.300;16.352;2023-12-20T00:48:33;3.50;;;2.72;;
43311;SDS011;30041;48.300;16.352;2023-12-20T00:51:04;3.15;;;2.70;;
43311;SDS011;30041;48.300;16.352;2023-12-20T00:53:29;3.40;;;2.95;;
43311;SDS011;30041;48.300;16.352;2023-12-20T00:55:55;3.95;;;2.83;;
43311;SDS011;30041;48.300;16.352;2023-12-20T00:58:21;3.58;;;2.58;;
43311;SDS011;30041;48.300;16.352;2023-12-20T01:00:49;3.05;;;2.70;;
43311;SDS011;30041;48.300;16.352;2023-12-20T01:03:15;2.90;;;2.40;;
43311;SDS011;30041;48.300;16.352;2023-12-20T01:05:40;3.47;;;2.58;;
43311;SDS011;30041;48.300;16.352;2023-12-20T01:08:06;3.00;;;2.55;;
43311;SDS011;30041;48.300;16.352;2023-12-20T01:10:34;3.60;;;2.80;;
43311;SDS011;30041;48.300;16.352;2023-12-20T01:13:00;3.83;;;2.47;;
43311;SDS011;30041;48.300;16.352;2023-12-20T01:15:25;3.40;;;2.80;;
43311;SDS011;30041;48.300;16.352;2023-12-20T01:17:54;3.28;;;2.50;;
43311;SDS011;30041;48.300;16.352;2023-12-20T01:20:19;2.92;;;2.35;;
43311;SDS011;30041;48.300;16.352;2023-12-20T01:22:45;2.90;;;2.42;;
43311;SDS011;30041;48.300;16.352;2023-12-20T01:25:10;2.90;;;2.40;;
43311;SDS011;30041;48.300;16.352;2023-12-20T01:27:36;3.33;;;2.58;;
43311;SDS011;30041;48.300;16.352;2023-12-20T01:30:02;3.25;;;2.60;;
43311;SDS011;30041;48.300;16.352;2023-12-20T01:32:27;3.20;;;2.47;;
43311;SDS011;30041;48.300;16.352;2023-12-20T01:34:53;3.08;;;2.60;;
43311;SDS011;30041;48.300;16.352;2023-12-20T01:37:18;2.80;;;2.40;;
43311;SDS011;30041;48.300;16.352;2023-12-20T01:39:44;2.88;;;2.42;;
43311;SDS011;30041;48.300;16.352;2023-12-20T01:42:10;3.75;;;2.42;;
43311;SDS011;30041;48.300;16.352;2023-12-20T01:44:35;2.90;;;2.38;;
43311;SDS011;30041;48.300;16.352;2023-12-20T01:47:01;2.90;;;2.47;;
43311;SDS011;30041;48.300;16.352;2023-12-20T01:49:27;3.17;;;2.40;;
43311;SDS011;30041;48.300;16.352;2023-12-20T01:51:53;3.08;;;2.70;;
43311;SDS011;30041;48.300;16.352;2023-12-20T01:54:19;3.20;;;2.60;;
43311;SDS011;30041;48.300;16.352;2023-12-20T01:56:46;3.25;;;2.60;;
43311;SDS011;30041;48.300;16.352;2023-12-20T01:59:12;2.92;;;2.33;;
43311;SDS011;30041;48.300;16.352;2023-12-20T02:01:38;2.65;;;2.38;;
43311;SDS011;30041;48.300;16.352;2023-12-20T02:04:04;2.88;;;2.47;;
43311;SDS011;30041;48.300;16.352;2023-12-20T02:06:30;2.65;;;2.30;;
43311;SDS011;30041;48.300;16.352;2023-12-20T02:08:57;3.00;;;2.40;;
43311;SDS011;30041;48.300;16.352;2023-12-20T02:11:23;3.08;;;2.53;;
43311;SDS011;30041;48.300;16.352;2023-12-20T02:13:49;3.00;;;2.30;;
43311;SDS011;30041;48.300;16.352;2023-12-20T02:16:14;2.53;;;2.20;;
43311;SDS011;30041;48.300;16.352;2023-12-20T02:18:40;2.90;;;2.33;;
43311;SDS011;30041;48.300;16.352;2023-12-20T02:21:10;2.70;;;2.20;;
43311;SDS011;30041;48.300;16.352;2023-12-20T02:23:35;2.70;;;2.38;;
43311;SDS011;30041;48.300;16.352;2023-12-20T02:26:05;2.78;;;2.20;;
43311;SDS011;30041;48.300;16.352;2023-12-20T02:28:30;3.17;;;2.35;;
43311;SDS011;30041;48.300;16.352;2023-12-20T02:30:57;3.10;;;2.40;;
43311;SDS011;30041;48.300;16.352;2023-12-20T02:33:28;3.08;;;2.55;;
43311;SDS011;30041;48.300;16.352;2023-12-20T02:35:53;3.50;;;2.60;;
43311;SDS011;30041;48.300;16.352;2023-12-20T02:38:19;2.88;;;2.30;;
43311;SDS011;30041;48.300;16.352;2023-12-20T02:40:44;3.00;;;2.40;;
43311;SDS011;30041;48.300;16.352;2023-12-20T02:43:10;2.58;;;2.28;;
43311;SDS011;30041;48.300;16.352;2023-12-20T02:45:39;3.00;;;2.40;;
43311;SDS011;30041;48.300;16.352;2023-12-20T02:48:07;2.65;;;2.30;;
43311;SDS011;30041;48.300;16.352;2023-12-20T02:50:33;2.70;;;2.22;;
43311;SDS011;30041;48.300;16.352;2023-12-20T02:52:58;2.85;;;2.30;;
43311;SDS011;30041;48.300;16.352;2023-12-20T02:55:24;3.03;;;2.50;;
43311;SDS011;30041;48.300;16.352;2023-12-20T02:57:53;3.42;;;2.17;;
43311;SDS011;30041;48.300;16.352;2023-12-20T03:00:21;2.72;;;2.30;;
43311;SDS011;30041;48.300;16.352;2023-12-20T03:02:47;2.80;;;2.20;;
43311;SDS011;30041;48.300;16.352;2023-12-20T03:05:12;2.90;;;2.45;;
43311;SDS011;30041;48.300;16.352;2023-12-20T03:07:38;3.10;;;2.40;;
43311;SDS011;30041;48.300;16.352;2023-12-20T03:10:04;2.53;;;2.08;;
43311;SDS011;30041;48.300;16.352;2023-12-20T03:12:30;2.55;;;2.17;;
43311;SDS011;30041;48.300;16.352;2023-12-20T03:14:55;2.60;;;2.22;;
43311;SDS011;30041;48.300;16.352;2023-12-20T03:17:23;2.85;;;2.30;;
43311;SDS011;30041;48.300;16.352;2023-12-20T03:19:49;3.40;;;2.30;;
43311;SDS011;30041;48.300;16.352;2023-12-20T03:22:14;2.33;;;2.00;;
43311;SDS011;30041;48.300;16.352;2023-12-20T03:24:40;2.70;;;2.30;;
43311;SDS011;30041;48.300;16.352;2023-12-20T03:27:05;2.70;;;2.25;;
43311;SDS011;30041;48.300;16.352;2023-12-20T03:29:31;2.92;;;2.20;;
43311;SDS011;30041;48.300;16.352;2023-12-20T03:31:56;2.28;;;2.00;;
43311;SDS011;30041;48.300;16.352;2023-12-20T03:34:22;2.60;;;1.92;;
43311;SDS011;30041;48.300;16.352;2023-12-20T03:36:47;2.55;;;2.28;;
43311;SDS011;30041;48.300;16.352;2023-12-20T03:39:13;2.30;;;2.00;;
43311;SDS011;30041;48.300;16.352;2023-12-20T03:41:38;2.80;;;2.30;;
43311;SDS011;30041;48.300;16.352;2023-12-20T03:44:04;2.50;;;2.20;;
43311;SDS011;30041;48.300;16.352;2023-12-20T03:46:29;2.03;;;1.83;;
43311;SDS011;30041;48.300;16.352;2023-12-20T03:48:55;2.53;;;2.17;;
43311;SDS011;30041;48.300;16.352;2023-12-20T03:51:20;2.58;;;2.00;;
43311;SDS011;30041;48.300;16.352;2023-12-20T03:53:46;2.35;;;2.00;;
43311;SDS011;30041;48.300;16.352;2023-12-20T03:56:11;2.55;;;2.10;;
43311;SDS011;30041;48.300;16.352;2023-12-20T03:58:37;2.30;;;2.00;;
43311;SDS011;30041;48.300;16.352;2023-12-20T04:01:02;2.13;;;1.90;;
43311;SDS011;30041;48.300;16.352;2023-12-20T04:03:28;2.65;;;1.98;;
43311;SDS011;30041;48.300;16.352;2023-12-20T04:05:56;2.30;;;2.05;;
43311;SDS011;30041;48.300;16.352;2023-12-20T04:08:21;2.45;;;2.00;;
43311;SDS011;30041;48.300;16.352;2023-12-20T04:10:47;2.53;;;2.05;;
43311;SDS011;30041;48.300;16.352;2023-12-20T04:13:12;2.25;;;2.00;;
43311;SDS011;30041;48.300;16.352;2023-12-20T04:15:38;2.75;;;2.20;;
43311;SDS011;30041;48.300;16.352;2023-12-20T04:18:03;2.42;;;2.00;;
43311;SDS011;30041;48.300;16.352;2023-12-20T04:20:29;2.00;;;1.70;;
43311;SDS011;30041;48.300;16.352;2023-12-20T04:22:55;2.10;;;1.90;;
43311;SDS011;30041;48.300;16.352;2023-12-20T04:25:20;2.58;;;1.90;;
43311;SDS011;30041;48.300;16.352;2023-12-20T04:27:46;2.50;;;2.10;;
43311;SDS011;30041;48.300;16.352;2023-12-20T04:30:11;2.00;;;1.80;;
43311;SDS011;30041;48.300;16.352;2023-12-20T04:32:37;3.20;;;1.80;;
43311;SDS011;30041;48.300;16.352;2023-12-20T04:35:02;2.00;;;1.60;;
43311;SDS011;30041;48.300;16.352;2023-12-20T04:37:28;1.90;;;1.60;;
43311;SDS011;30041;48.300;16.352;2023-12-20T04:39:54;1.92;;;1.63;;
43311;SDS011;30041;48.300;16.352;2023-12-20T04:42:19;2.20;;;1.90;;
43311;SDS011;30041;48.300;16.352;2023-12-20T04:44:45;5.35;;;2.67;;
43311;SDS011;30041;48.300;16.352;2023-12-20T04:47:10;3.55;;;2.90;;
43311;SDS011;30041;48.300;16.352;2023-12-20T04:49:36;5.50;;;3.20;;
43311;SDS011;30041;48.300;16.352;2023-12-20T04:52:01;3.33;;;2.63;;
43311;SDS011;30041;48.300;16.352;2023-12-20T04:54:27;5.18;;;2.70;;
43311;SDS011;30041;48.300;16.352;2023-12-20T04:56:52;3.00;;;2.40;;
43311;SDS011;30041;48.300;16.352;2023-12-20T04:59:18;3.15;;;2.38;;
43311;SDS011;30041;48.300;16.352;2023-12-20T05:01:45;4.03;;;2.33;;
43311;SDS011;30041;48.300;16.352;2023-12-20T05:04:11;3.42;;;2.22;;
43311;SDS011;30041;48.300;16.352;2023-12-20T05:06:36;3.80;;;2.20;;
43311;SDS011;30041;48.300;16.352;2023-12-20T05:09:02;2.70;;;1.95;;
43311;SDS011;30041;48.300;16.352;2023-12-20T05:11:30;2.20;;;1.70;;
43311;SDS011;30041;48.300;16.352;2023-12-20T05:13:55;3.33;;;1.65;;
43311;SDS011;30041;48.300;16.352;2023-12-20T05:16:21;2.42;;;1.77;;
43311;SDS011;30041;48.300;16.352;2023-12-20T05:18:48;4.22;;;1.88;;
43311;SDS011;30041;48.300;16.352;2023-12-20T05:21:14;2.20;;;1.52;;
43311;SDS011;30041;48.300;16.352;2023-12-20T05:23:40;1.92;;;1.50;;
43311;SDS011;30041;48.300;16.352;2023-12-20T05:26:05;2.30;;;1.60;;
43311;SDS011;30041;48.300;16.352;2023-12-20T05:28:31;1.55;;;1.30;;
43311;SDS011;30041;48.300;16.352;2023-12-20T05:30:56;1.30;;;1.08;;
43311;SDS011;30041;48.300;16.352;2023-12-20T05:33:22;1.90;;;1.20;;
43311;SDS011;30041;48.300;16.352;2023-12-20T05:35:47;1.60;;;1.20;;
43311;SDS011;30041;48.300;16.352;2023-12-20T05:38:13;1.25;;;1.02;;
43311;SDS011;30041;48.300;16.352;2023-12-20T05:40:38;1.30;;;1.17;;
43311;SDS011;30041;48.300;16.352;2023-12-20T05:43:03;1.20;;;1.00;;
43311;SDS011;30041;48.300;16.352;2023-12-20T05:45:29;1.30;;;1.00;;
43311;SDS011;30041;48.300;16.352;2023-12-20T05:47:57;1.00;;;0.88;;
43311;SDS011;30041;48.300;16.352;2023-12-20T05:50:23;1.00;;;0.80;;
43311;SDS011;30041;48.300;16.352;2023-12-20T05:52:48;0.98;;;0.80;;
43311;SDS011;30041;48.300;16.352;2023-12-20T05:55:14;1.10;;;0.80;;
43311;SDS011;30041;48.300;16.352;2023-12-20T05:57:39;0.90;;;0.80;;
43311;SDS011;30041;48.300;16.352;2023-12-20T06:00:05;1.00;;;0.80;;
43311;SDS011;30041;48.300;16.352;2023-12-20T06:02:31;1.23;;;0.98;;
43311;SDS011;30041;48.300;16.352;2023-12-20T06:04:56;0.93;;;0.80;;
43311;SDS011;30041;48.300;16.352;2023-12-20T06:07:22;1.15;;;0.93;;
43311;SDS011;30041;48.300;16.352;2023-12-20T06:09:47;1.00;;;0.90;;
43311;SDS011;30041;48.300;16.352;2023-12-20T06:12:13;1.00;;;0.90;;
43311;SDS011;30041;48.300;16.352;2023-12-20T06:14:38;1.38;;;0.80;;
43311;SDS011;30041;48.300;16.352;2023-12-20T06:17:03;1.23;;;0.90;;
43311;SDS011;30041;48.300;16.352;2023-12-20T06:19:29;1.17;;;0.90;;
43311;SDS011;30041;48.300;16.352;2023-12-20T06:21:54;1.27;;;0.88;;
43311;SDS011;30041;48.300;16.352;2023-12-20T06:24:20;1.30;;;1.00;;
43311;SDS011;30041;48.300;16.352;2023-12-20T06:26:48;1.02;;;0.70;;
43311;SDS011;30041;48.300;16.352;2023-12-20T06:29:17;1.17;;;0.65;;
43311;SDS011;30041;48.300;16.352;2023-12-20T06:31:42;0.80;;;0.80;;
43311;SDS011;30041;48.300;16.352;2023-12-20T06:34:10;0.82;;;0.70;;
43311;SDS011;30041;48.300;16.352;2023-12-20T06:36:36;1.23;;;0.80;;
43311;SDS011;30041;48.300;16.352;2023-12-20T06:39:01;0.95;;;0.82;;
43311;SDS011;30041;48.300;16.352;2023-12-20T06:41:27;1.10;;;0.82;;
43311;SDS011;30041;48.300;16.352;2023-12-20T06:43:53;0.82;;;0.77;;
43311;SDS011;30041;48.300;16.352;2023-12-20T06:46:18;1.00;;;0.80;;
43311;SDS011;30041;48.300;16.352;2023-12-20T06:48:44;0.85;;;0.80;;
43311;SDS011;30041;48.300;16.352;2023-12-20T06:51:14;1.13;;;0.90;;
43311;SDS011;30041;48.300;16.352;2023-12-20T06:53:41;0.95;;;0.85;;
43311;SDS011;30041;48.300;16.352;2023-12-20T06:56:07;1.08;;;0.82;;
43311;SDS011;30041;48.300;16.352;2023-12-20T06:58:32;1.38;;;1.02;;
43311;SDS011;30041;48.300;16.352;2023-12-20T07:00:58;1.00;;;0.80;;
43311;SDS011;30041;48.300;16.352;2023-12-20T07:03:23;0.98;;;0.88;;
43311;SDS011;30041;48.300;16.352;2023-12-20T07:05:49;1.08;;;0.90;;
43311;SDS011;30041;48.300;16.352;2023-12-20T07:08:15;1.00;;;0.90;;
43311;SDS011;30041;48.300;16.352;2023-12-20T07:10:41;1.20;;;0.90;;
43311;SDS011;30041;48.300;16.352;2023-12-20T07:13:09;0.80;;;0.80;;
43311;SDS011;30041;48.300;16.352;2023-12-20T07:15:34;1.00;;;0.90;;
43311;SDS011;30041;48.300;16.352;2023-12-20T07:18:03;1.08;;;0.85;;
43311;SDS011;30041;48.300;16.352;2023-12-20T07:20:29;0.90;;;0.75;;
43311;SDS011;30041;48.300;16.352;2023-12-20T07:22:54;1.13;;;0.90;;
43311;SDS011;30041;48.300;16.352;2023-12-20T07:25:20;1.50;;;0.88;;
43311;SDS011;30041;48.300;16.352;2023-12-20T07:27:46;1.20;;;0.90;;
43311;SDS011;30041;48.300;16.352;2023-12-20T07:30:11;1.30;;;1.00;;
43311;SDS011;30041;48.300;16.352;2023-12-20T07:32:37;1.05;;;0.80;;
43311;SDS011;30041;48.300;16.352;2023-12-20T07:35:03;0.93;;;0.80;;
43311;SDS011;30041;48.300;16.352;2023-12-20T07:37:29;1.10;;;0.93;;
43311;SDS011;30041;48.300;16.352;2023-12-20T07:39:57;1.40;;;1.10;;
43311;SDS011;30041;48.300;16.352;2023-12-20T07:42:23;1.27;;;0.90;;
43311;SDS011;30041;48.300;16.352;2023-12-20T07:44:48;2.83;;;0.85;;
43311;SDS011;30041;48.300;16.352;2023-12-20T07:47:13;1.52;;;0.93;;
43311;SDS011;30041;48.300;16.352;2023-12-20T07:49:39;1.35;;;1.08;;
43311;SDS011;30041;48.300;16.352;2023-12-20T07:52:05;0.93;;;0.82;;
43311;SDS011;30041;48.300;16.352;2023-12-20T07:54:30;1.17;;;0.90;;
43311;SDS011;30041;48.300;16.352;2023-12-20T07:56:59;0.88;;;0.80;;
43311;SDS011;30041;48.300;16.352;2023-12-20T07:59:25;1.08;;;0.80;;
43311;SDS011;30041;48.300;16.352;2023-12-20T08:01:50;1.33;;;0.90;;
43311;SDS011;30041;48.300;16.352;2023-12-20T08:04:16;0.90;;;0.70;;
43311;SDS011;30041;48.300;16.352;2023-12-20T08:06:44;1.52;;;0.90;;
43311;SDS011;30041;48.300;16.352;2023-12-20T08:09:13;1.00;;;0.90;;
43311;SDS011;30041;48.300;16.352;2023-12-20T08:11:38;1.60;;;0.90;;
43311;SDS011;30041;48.300;16.352;2023-12-20T08:14:04;0.80;;;0.60;;
43311;SDS011;30041;48.300;16.352;2023-12-20T08:16:29;0.80;;;0.80;;
43311;SDS011;30041;48.300;16.352;2023-12-20T08:18:55;1.17;;;0.77;;
43311;SDS011;30041;48.300;16.352;2023-12-20T08:21:21;1.38;;;0.90;;
43311;SDS011;30041;48.300;16.352;2023-12-20T08:23:46;1.13;;;0.93;;
43311;SDS011;30041;48.300;16.352;2023-12-20T08:26:12;0.80;;;0.80;;
43311;SDS011;30041;48.300;16.352;2023-12-20T08:28:43;1.40;;;1.00;;
43311;SDS011;30041;48.300;16.352;2023-12-20T08:31:13;1.23;;;0.93;;
43311;SDS011;30041;48.300;16.352;2023-12-20T08:33:39;0.82;;;0.77;;
43311;SDS011;30041;48.300;16.352;2023-12-20T08:36:04;1.27;;;1.00;;
43311;SDS011;30041;48.300;16.352;2023-12-20T08:38:31;1.63;;;0.95;;
43311;SDS011;30041;48.300;16.352;2023-12-20T08:40:56;1.10;;;1.00;;
43311;SDS011;30041;48.300;16.352;2023-12-20T08:43:21;1.45;;;0.90;;
43311;SDS011;30041;48.300;16.352;2023-12-20T08:45:50;0.82;;;0.80;;
43311;SDS011;30041;48.300;16.352;2023-12-20T08:48:15;0.88;;;0.73;;
43311;SDS011;30041;48.300;16.352;2023-12-20T08:50:41;1.10;;;0.98;;
43311;SDS011;30041;48.300;16.352;2023-12-20T08:53:07;1.27;;;0.90;;
43311;SDS011;30041;48.300;16.352;2023-12-20T08:55:32;2.03;;;1.00;;
43311;SDS011;30041;48.300;16.352;2023-12-20T08:58:01;1.40;;;0.90;;
43311;SDS011;30041;48.300;16.352;2023-12-20T09:00:32;1.02;;;0.90;;
43311;SDS011;30041;48.300;16.352;2023-12-20T09:02:58;1.25;;;0.85;;
43311;SDS011;30041;48.300;16.352;2023-12-20T09:05:24;1.38;;;0.90;;
43311;SDS011;30041;48.300;16.352;2023-12-20T09:07:50;1.42;;;1.00;;
43311;SDS011;30041;48.300;16.352;2023-12-20T09:10:16;0.90;;;0.80;;
43311;SDS011;30041;48.300;16.352;2023-12-20T09:12:41;0.80;;;0.80;;
43311;SDS011;30041;48.300;16.352;2023-12-20T09:15:07;1.05;;;0.77;;
43311;SDS011;30041;48.300;16.352;2023-12-20T09:17:33;1.10;;;0.77;;
43311;SDS011;30041;48.300;16.352;2023-12-20T09:19:59;0.93;;;0.82;;
43311;SDS011;30041;48.300;16.352;2023-12-20T09:22:27;0.95;;;0.70;;
43311;SDS011;30041;48.300;16.352;2023-12-20T09:24:52;1.15;;;0.80;;
43311;SDS011;30041;48.300;16.352;2023-12-20T09:27:19;1.17;;;0.88;;
43311;SDS011;30041;48.300;16.352;2023-12-20T09:29:44;1.05;;;0.80;;
43311;SDS011;30041;48.300;16.352;2023-12-20T09:32:10;0.82;;;0.73;;
43311;SDS011;30041;48.300;16.352;2023-12-20T09:34:35;1.10;;;0.90;;
43311;SDS011;30041;48.300;16.352;2023-12-20T09:37:00;0.90;;;0.80;;
43311;SDS011;30041;48.300;16.352;2023-12-20T09:39:28;0.88;;;0.70;;
43311;SDS011;30041;48.300;16.352;2023-12-20T09:42:00;0.80;;;0.70;;
43311;SDS011;30041;48.300;16.352;2023-12-20T09:44:27;1.67;;;0.88;;
43311;SDS011;30041;48.300;16.352;2023-12-20T09:46:54;1.35;;;0.82;;
43311;SDS011;30041;48.300;16.352;2023-12-20T09:49:20;0.95;;;0.85;;
43311;SDS011;30041;48.300;16.352;2023-12-20T09:51:46;1.35;;;0.95;;
43311;SDS011;30041;48.300;16.352;2023-12-20T09:54:14;2.85;;;0.90;;
43311;SDS011;30041;48.300;16.352;2023-12-20T09:56:40;0.70;;;0.70;;
43311;SDS011;30041;48.300;16.352;2023-12-20T09:59:06;1.23;;;0.90;;
43311;SDS011;30041;48.300;16.352;2023-12-20T10:01:31;1.48;;;1.00;;
43311;SDS011;30041;48.300;16.352;2023-12-20T10:03:59;1.02;;;0.75;;
43311;SDS011;30041;48.300;16.352;2023-12-20T10:06:26;1.27;;;0.73;;
43311;SDS011;30041;48.300;16.352;2023-12-20T10:08:51;1.02;;;0.75;;
43311;SDS011;30041;48.300;16.352;2023-12-20T10:11:18;0.98;;;0.70;;
43311;SDS011;30041;48.300;16.352;2023-12-20T10:13:44;0.88;;;0.80;;
43311;SDS011;30041;48.300;16.352;2023-12-20T10:16:13;1.02;;;0.70;;
43311;SDS011;30041;48.300;16.352;2023-12-20T10:18:38;1.10;;;0.80;;
43311;SDS011;30041;48.300;16.352;2023-12-20T10:21:04;1.58;;;0.90;;
43311;SDS011;30041;48.300;16.352;2023-12-20T10:23:30;1.15;;;0.75;;
43311;SDS011;30041;48.300;16.352;2023-12-20T10:25:57;0.75;;;0.70;;
43311;SDS011;30041;48.300;16.352;2023-12-20T10:28:23;0.93;;;0.80;;
43311;SDS011;30041;48.300;16.352;2023-12-20T10:30:48;0.93;;;0.60;;
43311;SDS011;30041;48.300;16.352;2023-12-20T10:33:17;0.90;;;0.70;;
43311;SDS011;30041;48.300;16.352;2023-12-20T10:35:49;0.80;;;0.70;;
43311;SDS011;30041;48.300;16.352;2023-12-20T10:38:15;1.25;;;0.90;;
43311;SDS011;30041;48.300;16.352;2023-12-20T10:40:41;0.80;;;0.60;;
43311;SDS011;30041;48.300;16.352;2023-12-20T10:43:07;1.10;;;0.80;;
43311;SDS011;30041;48.300;16.352;2023-12-20T10:45:34;0.80;;;0.70;;
43311;SDS011;30041;48.300;16.352;2023-12-20T10:47:59;1.10;;;0.77;;
43311;SDS011;30041;48.300;16.352;2023-12-20T10:50:27;1.00;;;0.80;;
43311;SDS011;30041;48.300;16.352;2023-12-20T10:52:53;0.70;;;0.65;;
43311;SDS011;30041;48.300;16.352;2023-12-20T10:55:20;0.98;;;0.80;;
43311;SDS011;30041;48.300;16.352;2023-12-20T10:57:45;0.82;;;0.70;;
43311;SDS011;30041;48.300;16.352;2023-12-20T11:00:15;0.85;;;0.73;;
43311;SDS011;30041;48.300;16.352;2023-12-20T11:02:43;0.98;;;0.70;;
43311;SDS011;30041;48.300;16.352;2023-12-20T11:07:52;0.80;;;0.68;;
43311;SDS011;30041;48.300;16.352;2023-12-20T11:10:25;0.70;;;0.70;;
43311;SDS011;30041;48.300;16.352;2023-12-20T11:16:19;0.95;;;0.77;;
43311;SDS011;30041;48.300;16.352;2023-12-20T11:18:49;0.77;;;0.70;;
43311;SDS011;30041;48.300;16.352;2023-12-20T11:21:16;0.90;;;0.75;;
43311;SDS011;30041;48.300;16.352;2023-12-20T11:23:42;0.60;;;0.60;;
43311;SDS011;30041;48.300;16.352;2023-12-20T11:26:07;0.75;;;0.52;;
43311;SDS011;30041;48.300;16.352;2023-12-20T11:28:33;0.85;;;0.70;;
43311;SDS011;30041;48.300;16.352;2023-12-20T11:30:58;0.63;;;0.60;;
43311;SDS011;30041;48.300;16.352;2023-12-20T11:33:36;0.70;;;0.55;;
43311;SDS011;30041;48.300;16.352;2023-12-20T11:36:03;0.90;;;0.70;;
43311;SDS011;30041;48.300;16.352;2023-12-20T11:38:40;0.98;;;0.70;;
43311;SDS011;30041;48.300;16.352;2023-12-20T11:41:19;1.05;;;0.73;;
43311;SDS011;30041;48.300;16.352;2023-12-20T11:43:47;1.05;;;0.77;;
43311;SDS011;30041;48.300;16.352;2023-12-20T11:46:13;0.70;;;0.60;;
43311;SDS011;30041;48.300;16.352;2023-12-20T11:48:39;0.75;;;0.63;;
43311;SDS011;30041;48.300;16.352;2023-12-20T11:51:11;0.80;;;0.47;;
43311;SDS011;30041;48.300;16.352;2023-12-20T11:53:37;0.60;;;0.50;;
43311;SDS011;30041;48.300;16.352;2023-12-20T11:56:03;1.00;;;0.70;;
43311;SDS011;30041;48.300;16.352;2023-12-20T11:58:31;0.90;;;0.70;;
43311;SDS011;30041;48.300;16.352;2023-12-20T12:00:57;0.50;;;0.50;;
43311;SDS011;30041;48.300;16.352;2023-12-20T12:03:23;1.55;;;0.70;;
43311;SDS011;30041;48.300;16.352;2023-12-20T12:05:49;0.63;;;0.60;;
43311;SDS011;30041;48.300;16.352;2023-12-20T12:08:15;0.90;;;0.60;;
43311;SDS011;30041;48.300;16.352;2023-12-20T12:10:43;0.73;;;0.60;;
43311;SDS011;30041;48.300;16.352;2023-12-20T12:13:09;0.98;;;0.60;;
43311;SDS011;30041;48.300;16.352;2023-12-20T12:15:35;0.60;;;0.45;;
43311;SDS011;30041;48.300;16.352;2023-12-20T12:18:01;0.52;;;0.50;;
43311;SDS011;30041;48.300;16.352;2023-12-20T12:20:27;0.70;;;0.60;;
43311;SDS011;30041;48.300;16.352;2023-12-20T12:23:04;0.60;;;0.47;;
43311;SDS011;30041;48.300;16.352;2023-12-20T12:25:34;0.60;;;0.60;;
43311;SDS011;30041;48.300;16.352;2023-12-20T12:28:01;0.85;;;0.50;;
43311;SDS011;30041;48.300;16.352;2023-12-20T12:30:30;0.60;;;0.50;;
43311;SDS011;30041;48.300;16.352;2023-12-20T12:32:55;0.60;;;0.50;;
43311;SDS011;30041;48.300;16.352;2023-12-20T12:35:21;0.90;;;0.60;;
43311;SDS011;30041;48.300;16.352;2023-12-20T12:37:47;1.30;;;0.70;;
43311;SDS011;30041;48.300;16.352;2023-12-20T12:40:14;1.92;;;0.70;;
43311;SDS011;30041;48.300;16.352;2023-12-20T12:42:43;1.77;;;0.73;;
43311;SDS011;30041;48.300;16.352;2023-12-20T12:45:10;1.50;;;0.68;;
43311;SDS011;30041;48.300;16.352;2023-12-20T12:47:36;2.10;;;0.80;;
43311;SDS011;30041;48.300;16.352;2023-12-20T12:50:05;5.13;;;1.35;;
43311;SDS011;30041;48.300;16.352;2023-12-20T12:52:31;2.50;;;1.08;;
43311;SDS011;30041;48.300;16.352;2023-12-20T12:54:57;1.40;;;0.90;;
43311;SDS011;30041;48.300;16.352;2023-12-20T12:57:25;2.22;;;1.00;;
43311;SDS011;30041;48.300;16.352;2023-12-20T12:59:51;2.17;;;1.10;;
43311;SDS011;30041;48.300;16.352;2023-12-20T13:02:16;2.65;;;1.00;;
43311;SDS011;30041;48.300;16.352;2023-12-20T13:04:42;1.23;;;0.90;;
43311;SDS011;30041;48.300;16.352;2023-12-20T13:07:08;2.22;;;1.20;;
43311;SDS011;30041;48.300;16.352;2023-12-20T13:09:34;2.70;;;1.10;;
43311;SDS011;30041;48.300;16.352;2023-12-20T13:12:00;2.63;;;1.20;;
43311;SDS011;30041;48.300;16.352;2023-12-20T13:14:25;2.55;;;1.23;;
43311;SDS011;30041;48.300;16.352;2023-12-20T13:16:51;2.22;;;1.13;;
43311;SDS011;30041;48.300;16.352;2023-12-20T13:19:19;1.75;;;0.90;;
43311;SDS011;30041;48.300;16.352;2023-12-20T13:21:44;2.03;;;0.95;;
43311;SDS011;30041;48.300;16.352;2023-12-20T13:24:09;1.60;;;0.90;;
43311;SDS011;30041;48.300;16.352;2023-12-20T13:26:35;1.90;;;0.77;;
43311;SDS011;30041;48.300;16.352;2023-12-20T13:29:01;1.52;;;0.95;;
43311;SDS011;30041;48.300;16.352;2023-12-20T13:31:26;1.83;;;1.10;;
43311;SDS011;30041;48.300;16.352;2023-12-20T13:33:53;1.27;;;0.90;;
43311;SDS011;30041;48.300;16.352;2023-12-20T13:36:19;1.70;;;1.10;;
43311;SDS011;30041;48.300;16.352;2023-12-20T13:38:45;1.20;;;0.77;;
43311;SDS011;30041;48.300;16.352;2023-12-20T13:41:10;1.45;;;0.90;;
43311;SDS011;30041;48.300;16.352;2023-12-20T13:43:36;1.70;;;0.80;;
43311;SDS011;30041;48.300;16.352;2023-12-20T13:46:04;1.90;;;1.02;;
43311;SDS011;30041;48.300;16.352;2023-12-20T13:48:30;1.20;;;0.70;;
43311;SDS011;30041;48.300;16.352;2023-12-20T13:50:59;1.55;;;0.98;;
43311;SDS011;30041;48.300;16.352;2023-12-20T13:53:24;1.65;;;0.80;;
43311;SDS011;30041;48.300;16.352;2023-12-20T13:55:49;2.95;;;1.00;;
43311;SDS011;30041;48.300;16.352;2023-12-20T13:58:15;3.38;;;0.80;;
43311;SDS011;30041;48.300;16.352;2023-12-20T14:00:41;3.25;;;0.90;;
43311;SDS011;30041;48.300;16.352;2023-12-20T14:03:07;1.05;;;0.77;;
43311;SDS011;30041;48.300;16.352;2023-12-20T14:05:32;1.95;;;1.10;;
43311;SDS011;30041;48.300;16.352;2023-12-20T14:07:58;2.83;;;0.90;;
43311;SDS011;30041;48.300;16.352;2023-12-20T14:10:26;2.40;;;1.08;;
43311;SDS011;30041;48.300;16.352;2023-12-20T14:12:52;1.20;;;0.80;;
43311;SDS011;30041;48.300;16.352;2023-12-20T14:15:18;1.60;;;0.88;;
43311;SDS011;30041;48.300;16.352;2023-12-20T14:17:44;2.67;;;1.00;;
43311;SDS011;30041;48.300;16.352;2023-12-20T14:20:09;3.10;;;0.90;;
43311;SDS011;30041;48.300;16.352;2023-12-20T14:22:35;2.53;;;0.88;;
43311;SDS011;30041;48.300;16.352;2023-12-20T14:25:01;2.17;;;0.95;;
43311;SDS011;30041;48.300;16.352;2023-12-20T14:27:27;3.25;;;1.20;;
43311;SDS011;30041;48.300;16.352;2023-12-20T14:29:52;2.15;;;0.95;;
43311;SDS011;30041;48.300;16.352;2023-12-20T14:32:18;2.80;;;0.82;;
43311;SDS011;30041;48.300;16.352;2023-12-20T14:34:43;2.10;;;0.90;;